^^
Station Historical Data
Daily Summary for May 26, 2017 Units:  Metric    English   Both
« Previous Day
Next Day »
Daily Weekly Monthly Yearly Custom
  High: Low: Average:
Temperature: 22.3 °C 8.1 °C 13.9 °C
Dew Point: 7.6 °C 0 °C 4.3 °C
Humidity: 73% 32% 54%
Wind Speed: 19.5km/h 0km/h 2.4km/h
Wind Gust: 22.5km/h - -
Wind- - WNW
Pressure: 1016.1 hPa 1013.4 hPa -
Precipitation: 0 mm    
Historical Graphs
 
 
Tabular Data for May 26, 2017
Time Temperature Dew Point Pressure Wind Wind Speed Wind Gust Humidity Rainfall Rate (Hourly) solar Conditions
01:16 12.8 °C 0.5 °C 1014.4 hPa Calm     43% 0 mm 0.0 W/m2
01:21 12.3 °C 0.4 °C 1014.4 hPa Calm     44% 0 mm 0.0 W/m2
01:27 11.9 °C 0.3 °C 1014.1 hPa Calm     45% 0 mm 0.0 W/m2
01:32 11.8 °C 0.8 °C 1014.1 hPa Calm     47% 0 mm 0.0 W/m2
01:37 11.6 °C 0.7 °C 1014.4 hPa Calm     47% 0 mm 0.0 W/m2
01:47 11.1 °C 0.5 °C 1014.4 hPa Calm     48% 0 mm 0.0 W/m2
01:53 10.8 °C 0.2 °C 1014.4 hPa Calm     48% 0 mm 0.0 W/m2
01:58 10.6 °C 0.3 °C 1014.4 hPa Calm     49% 0 mm 0.0 W/m2
02:08 10.3 °C 0 °C 1014.4 hPa Calm     49% 0 mm 0.0 W/m2
02:19 9.8 °C 0.1 °C 1014.4 hPa Calm     51% 0 mm 0.0 W/m2
02:24 9.8 °C 0.1 °C 1014.4 hPa Calm     51% 0 mm 0.0 W/m2
02:29 9.9 °C 0.8 °C 1014.4 hPa Calm     53% 0 mm 0.0 W/m2
02:34 9.9 °C 1 °C 1014.4 hPa Calm     54% 0 mm 0.0 W/m2
02:39 9.9 °C 1 °C 1014.4 hPa Calm     54% 0 mm 0.0 W/m2
02:44 10.2 °C 2.1 °C 1014.4 hPa Calm     57% 0 mm 0.0 W/m2
02:49 10.4 °C 2 °C 1014.4 hPa Calm     56% 0 mm 0.0 W/m2
02:55 10.4 °C 2 °C 1014.4 hPa Calm     56% 0 mm 0.0 W/m2
03:00 10.2 °C 1.6 °C 1014.4 hPa Calm     55% 0 mm 0.0 W/m2
03:06 9.9 °C 1.8 °C 1014.4 hPa Calm     57% 0 mm 0.0 W/m2
03:11 9.8 °C 2.2 °C 1014.4 hPa Calm     59% 0 mm 0.0 W/m2
03:16 9.8 °C 2.6 °C 1014.4 hPa Calm     61% 0 mm 0.0 W/m2
03:21 10.1 °C 3.4 °C 1014.4 hPa Calm     63% 0 mm 0.0 W/m2
03:26 10.3 °C 3.8 °C 1014.4 hPa Calm     64% 0 mm 0.0 W/m2
03:31 10.6 °C 3.8 °C 1014.8 hPa Calm     63% 0 mm 0.0 W/m2
03:37 10.6 °C 3.8 °C 1014.8 hPa Calm     63% 0 mm 0.0 W/m2
03:42 10.6 °C 3.8 °C 1014.4 hPa Calm     63% 0 mm 0.0 W/m2
03:47 10.5 °C 4.2 °C 1014.4 hPa Calm     65% 0 mm 0.0 W/m2
03:52 10.5 °C 4.4 °C 1014.4 hPa Calm     66% 0 mm 0.0 W/m2
03:57 10.6 °C 4.5 °C 1014.4 hPa Calm     66% 0 mm 0.0 W/m2
04:03 10.6 °C 4.9 °C 1014.4 hPa Calm     68% 0 mm 0.0 W/m2
04:08 10.7 °C 4.8 °C 1014.4 hPa Calm     67% 0 mm 0.0 W/m2
04:13 10.7 °C 4.4 °C 1014.1 hPa Calm     65% 0 mm 0.0 W/m2
04:18 10.5 °C 4.2 °C 1014.1 hPa Calm     65% 0 mm 0.0 W/m2
04:23 10.2 °C 4.1 °C 1014.4 hPa Calm     66% 0 mm 0.0 W/m2
04:28 9.9 °C 4.1 °C 1014.4 hPa Calm     67% 0 mm 0.0 W/m2
04:34 9.8 °C 4.2 °C 1014.1 hPa Calm     68% 0 mm 0.0 W/m2
04:39 9.8 °C 4.6 °C 1014.1 hPa Calm     70% 0 mm 0.0 W/m2
04:44 9.9 °C 4.7 °C 1014.4 hPa Calm     70% 0 mm 0.0 W/m2
04:49 10 °C 4.6 °C 1014.4 hPa Calm     69% 0 mm 0.0 W/m2
04:55 10 °C 4.8 °C 1014.4 hPa Calm     70% 0 mm 0.0 W/m2
05:00 10.1 °C 4.7 °C 1014.4 hPa Calm     69% 0 mm 0.0 W/m2
05:10 9.9 °C 4.3 °C 1014.4 hPa Calm     68% 0 mm 0.0 W/m2
05:15 9.8 °C 4.4 °C 1014.4 hPa Calm     69% 0 mm 0.0 W/m2
05:20 9.9 °C 4.3 °C 1014.4 hPa Calm     68% 0 mm 0.0 W/m2
05:26 9.9 °C 4.1 °C 1014.4 hPa Calm     67% 0 mm 0.0 W/m2
05:31 9.8 °C 4 °C 1014.4 hPa Calm     67% 0 mm 0.0 W/m2
05:36 9.6 °C 3.8 °C 1014.4 hPa Calm     67% 0 mm 0.0 W/m2
05:42 9.4 °C 3.6 °C 1014.8 hPa Calm     67% 0 mm 0.0 W/m2
05:48 9.3 °C 3.7 °C 1014.8 hPa Calm     68% 0 mm 0.0 W/m2
05:53 9 °C 3.4 °C 1014.8 hPa Calm     68% 0 mm 0.0 W/m2
06:03 8.7 °C 3.5 °C 1014.4 hPa Calm     70% 0 mm 0.0 W/m2
06:08 8.7 °C 3.7 °C 1014.4 hPa Calm     71% 0 mm 0.0 W/m2
06:13 8.7 °C 3.3 °C 1014.4 hPa Calm     69% 0 mm 0.0 W/m2
06:18 8.6 °C 3.4 °C 1014.4 hPa Calm     70% 0 mm 0.0 W/m2
06:23 8.4 °C 3.2 °C 1014.8 hPa Calm     70% 0 mm 0.0 W/m2
06:28 8.4 °C 3 °C 1014.8 hPa Calm     69% 0 mm 0.0 W/m2
06:34 8.3 °C 2.9 °C 1014.8 hPa Calm     69% 0 mm 7.0 W/m2
06:44 8.1 °C 3.2 °C 1015.1 hPa Calm     71% 0 mm 12.0 W/m2
06:49 8.1 °C 3.2 °C 1015.1 hPa Calm     71% 0 mm 23.0 W/m2
06:59 8.1 °C 3.2 °C 1015.1 hPa Calm     71% 0 mm 28.0 W/m2
07:04 8.1 °C 3.4 °C 1015.5 hPa Calm     72% 0 mm 30.0 W/m2
07:09 8.2 °C 3.5 °C 1015.5 hPa Calm     72% 0 mm 32.0 W/m2
07:16 8.3 °C 3.5 °C 1015.5 hPa Calm     72% 0 mm 37.0 W/m2
07:20 8.5 °C 3.7 °C 1015.5 hPa Calm     72% 0 mm 72.0 W/m2
07:25 8.7 °C 4.1 °C 1015.5 hPa Calm     73% 0 mm 95.0 W/m2
07:30 9.1 °C 4.3 °C 1015.5 hPa Calm     72% 0 mm 135.0 W/m2
07:41 10.3 °C 4.4 °C 1015.8 hPa Calm     67% 0 mm 176.0 W/m2
08:02 12.2 °C 5.1 °C 1015.5 hPa Calm     62% 0 mm 232.0 W/m2
08:11 13.2 °C 5.6 °C 1015.8 hPa Calm     60% 0 mm 262.0 W/m2
08:31 13.6 °C 5.7 °C 1015.8 hPa Calm     59% 0 mm 264.0 W/m2
08:51 14.6 °C 5.9 °C 1016.1 hPa WSW 4.7 km/h 9.7 km/h 56% 0 mm 366.0 W/m2
09:00 14.8 °C 5.6 °C 1016.1 hPa WSW 7.9 km/h 9.7 km/h 54% 0 mm 404.0 W/m2
09:11 15.2 °C 5.4 °C 1016.1 hPa WSW 6.4 km/h 8 km/h 52% 0 mm 432.0 W/m2
09:21 15.6 °C 5.2 °C 1016.1 hPa Calm     50% 0 mm 462.0 W/m2
09:31 15.9 °C 5.2 °C 1016.1 hPa Calm     49% 0 mm 483.0 W/m2
09:40 16.3 °C 5.3 °C 1016.1 hPa Calm     48% 0 mm 459.0 W/m2
09:48 16.8 °C 4.8 °C 1016.1 hPa Calm     45% 0 mm 506.0 W/m2
09:54 17 °C 5 °C 1016.1 hPa WSW 4.7 km/h 8 km/h 45% 0 mm 552.0 W/m2
09:58 17.2 °C 4.8 °C 1016.1 hPa Calm     44% 0 mm 455.0 W/m2
10:44 18.8 °C 5.6 °C 1015.5 hPa Calm     42% 0 mm 603.0 W/m2
10:50 19 °C 5.8 °C 1015.5 hPa Calm     42% 0 mm 615.0 W/m2
10:53 19.2 °C 5.6 °C 1015.5 hPa Calm     41% 0 mm 613.0 W/m2
11:06 19.3 °C 5.7 °C 1015.5 hPa Calm     41% 0 mm 633.0 W/m2
11:14 19.7 °C 5.7 °C 1015.1 hPa Calm     40% 0 mm 508.0 W/m2
11:21 19.7 °C 5.4 °C 1015.1 hPa Calm     39% 0 mm 633.0 W/m2
11:26 19.8 °C 5.4 °C 1015.1 hPa NW 7.9 km/h 11.3 km/h 39% 0 mm 598.0 W/m2
11:54 20.2 °C 5.8 °C 1014.8 hPa WNW 11.1 km/h 11.3 km/h 39% 0 mm 624.0 W/m2
12:07 20.4 °C 6 °C 1014.8 hPa WNW 11.1 km/h 19.3 km/h 39% 0 mm 624.0 W/m2
12:50 20.6 °C 5.8 °C 1014.1 hPa Calm   9.7 km/h 38% 0 mm 591.0 W/m2
12:57 20.8 °C 6 °C 1014.1 hPa WNW 16.3 km/h 16.3 km/h 38% 0 mm 582.0 W/m2
13:03 20.8 °C 5.6 °C 1014.1 hPa Calm     37% 0 mm 577.0 W/m2
13:14 21.1 °C 5.8 °C 1013.8 hPa WNW 7.9 km/h 12.9 km/h 37% 0 mm 563.0 W/m2
13:21 21.3 °C 6 °C 1013.8 hPa Calm     37% 0 mm 545.0 W/m2
13:36 21.2 °C 5.5 °C 1013.8 hPa Calm     36% 0 mm 520.0 W/m2
13:51 21.2 °C 5.1 °C 1013.4 hPa Calm     35% 0 mm 492.0 W/m2
14:07 21.4 °C 4.9 °C 1013.4 hPa Calm     34% 0 mm 461.0 W/m2
14:22 21.8 °C 4.8 °C 1013.4 hPa Calm     33% 0 mm 427.0 W/m2
14:37 22.3 °C 5.2 °C 1013.4 hPa Calm     33% 0 mm 392.0 W/m2
14:53 22.2 °C 4.7 °C 1013.4 hPa Calm     32% 0 mm 353.0 W/m2
15:06 22.2 °C 4.7 °C 1013.4 hPa Calm     32% 0 mm 327.0 W/m2
15:13 22 °C 4.5 °C 1013.4 hPa Calm     32% 0 mm 302.0 W/m2
15:29 22.1 °C 4.6 °C 1013.4 hPa Calm     32% 0 mm 262.0 W/m2
15:49 21.8 °C 5.2 °C 1013.4 hPa WNW 9.7 km/h 11.3 km/h 34% 0 mm 207.0 W/m2
15:59 21.6 °C 5.1 °C 1013.4 hPa WNW 4.7 km/h 11.3 km/h 34% 0 mm 146.0 W/m2
16:20 21.4 °C 5.7 °C 1013.4 hPa WNW 11.1 km/h 17.7 km/h 36% 0 mm 79.0 W/m2
16:29 21.1 °C 5.8 °C 1013.4 hPa WNW 13 km/h 17.7 km/h 37% 0 mm 46.0 W/m2
16:40 20.8 °C 6 °C 1013.8 hPa WNW 16.3 km/h 17.7 km/h 38% 0 mm 33.0 W/m2
16:49 20.5 °C 6.1 °C 1013.8 hPa WNW 19.5 km/h 19.5 km/h 39% 0 mm 16.0 W/m2
16:55 20.1 °C 6.1 °C 1013.8 hPa WNW 11.1 km/h 20.9 km/h 40% 0 mm 9.0 W/m2
17:16 19.6 °C 7 °C 1013.8 hPa WNW 9.7 km/h 19.3 km/h 44% 0 mm 0.0 W/m2
17:25 19.2 °C 7.6 °C 1014.1 hPa WNW 16.3 km/h 20.9 km/h 47% 0 mm 0.0 W/m2
17:41 18.7 °C 7.5 °C 1014.1 hPa West 17.7 km/h 22.5 km/h 48% 0 mm 0.0 W/m2
18:01 18.4 °C 7.5 °C 1014.4 hPa West 13 km/h 17.7 km/h 49% 0 mm 0.0 W/m2
18:15 18.1 °C 7.5 °C 1014.4 hPa West 9.7 km/h 17.7 km/h 50% 0 mm 0.0 W/m2
18:21 17.9 °C 7.6 °C 1014.4 hPa West 9.7 km/h 11.3 km/h 51% 0 mm 0.0 W/m2
18:36 17.6 °C 7.3 °C 1014.4 hPa West 7.9 km/h 11.3 km/h 51% 0 mm 0.0 W/m2
18:46 17.4 °C 7.4 °C 1014.8 hPa West 9.7 km/h 16.1 km/h 52% 0 mm 0.0 W/m2
19:01 17.2 °C 7.5 °C 1015.1 hPa West 11.1 km/h 16.1 km/h 53% 0 mm 0.0 W/m2
19:16 17.2 °C 7.5 °C 1015.1 hPa West 9.7 km/h 17.7 km/h 53% 0 mm 0.0 W/m2
19:37 16.9 °C 7.5 °C 1015.5 hPa West 13 km/h 17.7 km/h 54% 0 mm 0.0 W/m2
19:48 16.6 °C 7.3 °C 1015.8 hPa West 11.1 km/h 12.9 km/h 54% 0 mm 0.0 W/m2
Canyon Roadhouse, Fishriver Canyon, Namibia
Compliments of Weather Underground - 2.25 mb